Time;durP1;ratioP1;P1;durP2;ratioP2;P2;SDS_P1;SDS_P2;PMS_P1;PMS_P2;Temp;Humidity;BMP_temperature;BMP_pressure;BME280_temperature;BME280_humidity;BME280_pressure;Samples;Min_cycle;Max_cycle;Signal;HPM_P1;HPM_P2
2022/04/16 00:01:38;;;;;;;8.73;5.97;;;;;;;;;;5038973;28;20191;-82
2022/04/16 00:04:04;;;;;;;7.17;5.37;;;7.80;99.90;;;;;;5043281;28;20170;-82
2022/04/16 00:06:30;;;;;;;7.40;5.43;;;;;;;;;;5045761;28;20626;-82
2022/04/16 00:08:56;;;;;;;6.73;5.50;;;7.70;99.90;;;;;;5044613;28;20184;-82
2022/04/16 00:11:22;;;;;;;6.97;5.30;;;;;;;;;;5041358;28;20208;-82
2022/04/16 00:13:50;;;;;;;7.13;5.53;;;;;;;;;;5040710;28;20175;-82
2022/04/16 00:16:17;;;;;;;7.90;5.23;;;7.50;99.90;;;;;;5039812;28;20187;-82
2022/04/16 00:18:46;;;;;;;9.03;4.73;;;7.50;99.90;;;;;;5040475;28;20199;-82
2022/04/16 00:21:12;;;;;;;6.37;5.03;;;7.50;99.90;;;;;;5039768;28;20205;-82
2022/04/16 00:23:41;;;;;;;7.60;4.80;;;7.50;99.90;;;;;;5040476;28;20638;-82
2022/04/16 00:26:07;;;;;;;8.63;4.73;;;7.40;99.90;;;;;;5040215;28;20184;-82
2022/04/16 00:28:35;;;;;;;6.07;4.87;;;7.40;99.90;;;;;;5040955;28;20230;-84
2022/04/16 00:31:01;;;;;;;6.53;4.80;;;7.40;99.90;;;;;;5040060;28;20204;-83
2022/04/16 00:33:27;;;;;;;6.20;4.97;;;7.30;99.90;;;;;;5039594;28;20176;-82
2022/04/16 00:35:53;;;;;;;6.77;4.13;;;;;;;;;;5039713;28;20230;-82
2022/04/16 00:38:19;;;;;;;5.53;4.70;;;7.20;99.90;;;;;;5041396;28;20280;-82
2022/04/16 00:40:45;;;;;;;5.73;4.47;;;7.20;99.90;;;;;;5041422;28;20696;-82
2022/04/16 00:43:29;;;;;;;5.20;4.23;;;7.20;99.90;;;;;;5040771;28;20169;-83
2022/04/16 00:45:56;;;;;;;5.30;4.10;;;7.20;99.90;;;;;;5040272;28;20229;-83
2022/04/16 00:48:22;;;;;;;5.13;4.50;;;7.20;99.90;;;;;;5039408;28;20304;-82
2022/04/16 00:50:53;;;;;;;4.80;3.73;;;7.10;99.90;;;;;;5039229;28;20199;-82
2022/04/16 00:53:19;;;;;;;5.67;4.27;;;7.10;99.90;;;;;;5039584;28;20664;-82
2022/04/16 00:55:45;;;;;;;4.83;4.20;;;7.10;99.90;;;;;;5039511;28;20211;-82
2022/04/16 00:58:11;;;;;;;6.87;5.00;;;7.10;99.90;;;;;;5039438;28;20214;-82
2022/04/16 01:00:37;;;;;;;8.40;4.13;;;7.10;99.90;;;;;;5040341;28;20551;-83
2022/04/16 01:03:03;;;;;;;6.43;4.27;;;;;;;;;;5040827;28;20176;-82
2022/04/16 01:05:29;;;;;;;6.63;4.00;;;7.20;99.90;;;;;;5041074;28;20602;-83
2022/04/16 01:07:59;;;;;;;6.40;4.10;;;7.20;99.90;;;;;;5040001;28;20231;-82
2022/04/16 01:10:26;;;;;;;6.17;4.00;;;7.10;99.90;;;;;;5039002;28;20567;-83
2022/04/16 01:12:57;;;;;;;5.00;3.57;;;7.10;99.90;;;;;;5039979;28;20218;-83
2022/04/16 01:15:23;;;;;;;4.87;3.97;;;;;;;;;;5042984;28;20661;-83
2022/04/16 01:17:50;;;;;;;4.97;3.70;;;7.10;99.90;;;;;;5044045;28;20253;-83
2022/04/16 01:20:17;;;;;;;5.83;3.90;;;7.00;99.90;;;;;;5043726;28;20202;-83
2022/04/16 01:22:45;;;;;;;6.57;3.70;;;7.00;99.90;;;;;;5044711;28;20187;-83
2022/04/16 01:25:11;;;;;;;5.50;3.73;;;7.00;99.90;;;;;;5043898;28;20192;-82
2022/04/16 01:27:39;;;;;;;5.70;4.87;;;6.90;99.90;;;;;;5046686;28;20176;-83
2022/04/16 01:30:05;;;;;;;5.30;4.10;;;6.90;99.90;;;;;;5046483;28;20349;-82
2022/04/16 01:32:34;;;;;;;5.03;4.00;;;6.80;99.90;;;;;;5045900;28;20839;-83
2022/04/16 01:35:00;;;;;;;5.90;4.40;;;6.80;99.90;;;;;;5043154;28;20634;-82
2022/04/16 01:37:33;;;;;;;4.23;3.77;;;6.70;99.90;;;;;;5043339;28;20191;-82
2022/04/16 01:40:00;;;;;;;5.53;4.13;;;6.70;99.90;;;;;;5044034;28;20208;-82
2022/04/16 01:42:25;;;;;;;5.53;4.30;;;6.70;99.90;;;;;;5042587;28;20175;-83
2022/04/16 01:44:52;;;;;;;4.60;4.20;;;6.60;99.90;;;;;;5043943;28;20182;-82
2022/04/16 01:47:18;;;;;;;4.10;3.50;;;6.60;99.90;;;;;;5044049;28;20175;-83
2022/04/16 01:49:44;;;;;;;4.67;4.20;;;;;;;;;;5042592;28;20269;-83
2022/04/16 01:52:09;;;;;;;4.80;4.30;;;6.60;99.90;;;;;;5044789;28;20179;-82
2022/04/16 01:54:36;;;;;;;5.40;4.10;;;6.60;99.90;;;;;;5043880;28;20559;-83
2022/04/16 01:57:02;;;;;;;5.20;4.23;;;6.50;99.90;;;;;;5043457;28;20234;-82
2022/04/16 01:59:29;;;;;;;5.33;4.30;;;6.60;99.90;;;;;;5042439;28;20213;-83
2022/04/16 02:01:56;;;;;;;4.57;3.90;;;6.60;99.90;;;;;;5042728;28;20723;-82
2022/04/16 02:04:22;;;;;;;5.27;4.17;;;6.50;99.90;;;;;;5043580;28;20225;-83
2022/04/16 02:06:50;;;;;;;6.67;4.07;;;6.50;99.90;;;;;;5042139;28;20209;-82
2022/04/16 02:09:16;;;;;;;6.03;4.10;;;6.50;99.90;;;;;;5043709;28;20195;-82
2022/04/16 02:11:43;;;;;;;5.73;4.13;;;6.40;99.90;;;;;;5043380;28;20251;-82
2022/04/16 02:14:08;;;;;;;5.67;3.80;;;6.40;99.90;;;;;;5042335;28;20198;-82
2022/04/16 02:16:34;;;;;;;4.97;4.23;;;;;;;;;;5044182;28;20186;-82
2022/04/16 02:19:00;;;;;;;8.43;4.40;;;6.20;99.90;;;;;;5042507;28;20207;-83
2022/04/16 02:21:27;;;;;;;5.97;4.77;;;;;;;;;;5042904;28;20212;-82
2022/04/16 02:23:54;;;;;;;5.10;4.10;;;6.20;99.90;;;;;;5042942;28;20170;-82
2022/04/16 02:26:20;;;;;;;5.83;4.03;;;6.20;99.90;;;;;;5041808;28;20184;-82
2022/04/16 02:28:49;;;;;;;5.10;4.40;;;6.10;99.90;;;;;;5042957;28;20236;-82
2022/04/16 02:31:14;;;;;;;6.03;4.13;;;6.20;99.90;;;;;;5042493;28;20453;-82
2022/04/16 02:33:41;;;;;;;4.90;3.90;;;;;;;;;;5042565;28;20655;-82
2022/04/16 02:36:07;;;;;;;5.83;4.17;;;;;;;;;;5042907;28;20228;-82
2022/04/16 02:38:34;;;;;;;5.63;4.37;;;6.10;99.90;;;;;;5042718;28;20466;-82
2022/04/16 02:40:59;;;;;;;5.13;4.13;;;6.10;99.90;;;;;;5042909;28;20213;-82
2022/04/16 02:43:25;;;;;;;5.03;4.23;;;6.20;99.90;;;;;;5042716;28;20186;-82
2022/04/16 02:48:35;;;;;;;6.20;4.10;;;6.10;99.90;;;;;;5045286;28;20207;-82
2022/04/16 02:51:02;;;;;;;5.87;4.47;;;6.10;99.90;;;;;;5044184;28;20202;-82
2022/04/16 02:53:29;;;;;;;6.33;4.17;;;6.10;99.90;;;;;;5044532;28;20201;-82
2022/04/16 02:55:55;;;;;;;5.30;4.47;;;6.20;99.90;;;;;;5045437;28;20233;-81
2022/04/16 02:58:21;;;;;;;4.87;4.07;;;6.10;99.90;;;;;;5045878;28;20218;-82
2022/04/16 03:00:48;;;;;;;5.03;4.40;;;6.10;99.90;;;;;;5044534;28;20721;-82
2022/04/16 03:03:14;;;;;;;5.47;4.20;;;6.10;99.90;;;;;;5044727;28;20242;-82
2022/04/16 03:05:41;;;;;;;4.93;4.30;;;6.00;99.90;;;;;;5044430;28;20184;-82
2022/04/16 03:08:07;;;;;;;6.40;4.60;;;6.00;99.90;;;;;;5045559;28;20175;-82
2022/04/16 03:10:33;;;;;;;6.53;4.53;;;6.00;99.90;;;;;;5047380;28;20285;-82
2022/04/16 03:12:59;;;;;;;5.47;4.53;;;6.10;99.90;;;;;;5047634;28;20176;-82
2022/04/16 03:18:10;;;;;;;7.73;4.50;;;6.00;99.90;;;;;;5044864;28;20233;-82
2022/04/16 03:20:40;;;;;;;6.20;4.27;;;6.00;99.90;;;;;;5050080;28;20266;-82
2022/04/16 03:23:06;;;;;;;5.57;4.10;;;6.00;99.90;;;;;;5053521;28;20185;-82
2022/04/16 03:25:32;;;;;;;5.03;4.03;;;6.00;99.90;;;;;;5053268;28;20416;-82
2022/04/16 03:27:58;;;;;;;6.33;4.87;;;6.00;99.90;;;;;;5041613;28;20209;-82
2022/04/16 03:30:24;;;;;;;5.97;4.80;;;6.00;99.90;;;;;;5041651;28;20194;-82
2022/04/16 03:32:52;;;;;;;7.03;4.40;;;5.90;99.90;;;;;;5040519;28;20186;-82
2022/04/16 03:35:19;;;;;;;5.80;4.27;;;5.90;99.90;;;;;;5041114;28;20277;-82
2022/04/16 03:37:45;;;;;;;4.27;3.73;;;5.90;99.90;;;;;;5041486;28;20194;-82
2022/04/16 03:40:12;;;;;;;5.53;4.07;;;5.90;99.90;;;;;;5040143;28;20199;-82
2022/04/16 03:43:04;;;;;;;4.77;3.73;;;5.90;99.90;;;;;;5040776;28;20210;-82
2022/04/16 03:45:32;;;;;;;5.73;4.47;;;5.90;99.90;;;;;;5039367;28;20272;-82
2022/04/16 03:47:59;;;;;;;5.17;4.23;;;5.80;99.90;;;;;;5040374;28;20182;-82
2022/04/16 03:50:26;;;;;;;5.93;4.20;;;5.80;99.90;;;;;;5041394;28;20199;-82
2022/04/16 03:52:53;;;;;;;5.63;4.47;;;5.80;99.90;;;;;;5041325;28;20191;-82
2022/04/16 04:00:55;;;;;;;5.80;4.43;;;5.80;99.90;;;;;;5041748;28;20225;-82
2022/04/16 04:03:21;;;;;;;6.57;4.97;;;5.80;99.90;;;;;;5040151;28;20187;-82
2022/04/16 04:05:49;;;;;;;6.30;4.53;;;5.70;99.90;;;;;;5039857;28;20179;-82
2022/04/16 04:08:16;;;;;;;5.93;4.47;;;5.70;99.90;;;;;;5040368;28;20651;-82
2022/04/16 04:10:42;;;;;;;5.50;4.93;;;5.70;99.90;;;;;;5040558;28;20210;-82
2022/04/16 04:13:08;;;;;;;6.37;4.43;;;5.80;99.90;;;;;;5040124;28;20252;-82
2022/04/16 04:15:34;;;;;;;6.13;4.70;;;5.80;99.90;;;;;;5040249;28;20190;-82
2022/04/16 04:18:00;;;;;;;5.23;4.73;;;;;;;;;;5039673;28;20216;-82
2022/04/16 04:20:29;;;;;;;8.40;4.60;;;5.80;99.90;;;;;;5039669;28;20203;-82
2022/04/16 04:22:55;;;;;;;6.17;4.60;;;6.00;99.90;;;;;;5039595;28;20176;-82
2022/04/16 04:25:21;;;;;;;6.20;5.13;;;5.80;99.90;;;;;;5040521;28;20181;-81
2022/04/16 04:27:47;;;;;;;8.00;5.00;;;5.80;99.90;;;;;;5042893;28;20266;-82
2022/04/16 04:30:13;;;;;;;6.97;4.20;;;5.80;99.90;;;;;;5040510;28;20285;-83
2022/04/16 04:32:39;;;;;;;6.20;4.70;;;5.80;99.90;;;;;;5039524;28;20174;-82
2022/04/16 04:35:06;;;;;;;8.60;4.57;;;5.80;99.90;;;;;;5039555;28;20186;-82
2022/04/16 04:37:32;;;;;;;6.00;4.57;;;;;;;;;;5038881;28;20252;-82
2022/04/16 04:39:57;;;;;;;5.87;4.67;;;5.60;99.90;;;;;;5039426;28;20187;-82
2022/04/16 04:42:27;;;;;;;7.67;5.17;;;5.60;99.90;;;;;;5039022;28;20190;-82
2022/04/16 04:44:53;;;;;;;6.90;5.20;;;5.40;99.90;;;;;;5039320;28;20189;-82
2022/04/16 04:47:19;;;;;;;6.27;4.73;;;5.40;99.90;;;;;;5039952;28;20182;-82
2022/04/16 04:49:45;;;;;;;7.37;5.57;;;5.40;99.90;;;;;;5040272;28;20174;-82
2022/04/16 04:52:11;;;;;;;7.40;5.80;;;;;;;;;;5039200;28;20232;-82
2022/04/16 04:54:37;;;;;;;8.60;5.60;;;5.40;99.90;;;;;;5039144;28;20705;-82
2022/04/16 04:57:03;;;;;;;8.23;5.67;;;5.30;99.90;;;;;;5040714;28;20206;-82
2022/04/16 04:59:29;;;;;;;7.83;5.77;;;5.30;99.90;;;;;;5039314;28;20203;-82
2022/04/16 05:01:55;;;;;;;8.00;5.43;;;5.30;99.90;;;;;;5039561;28;20228;-82
2022/04/16 05:04:20;;;;;;;7.93;5.40;;;5.30;99.90;;;;;;5039136;28;20178;-82
2022/04/16 05:06:46;;;;;;;6.80;5.33;;;5.30;99.90;;;;;;5039810;28;20178;-82
2022/04/16 05:09:12;;;;;;;10.80;5.87;;;5.30;99.90;;;;;;5039932;28;20185;-82
2022/04/16 05:11:37;;;;;;;8.50;5.80;;;5.40;99.90;;;;;;5041097;28;20198;-82
2022/04/16 05:14:03;;;;;;;8.13;6.23;;;5.30;99.90;;;;;;5052254;28;20246;-82
2022/04/16 05:16:29;;;;;;;8.30;6.13;;;5.30;99.90;;;;;;5053767;28;20189;-82
2022/04/16 05:18:54;;;;;;;8.60;6.50;;;5.40;99.90;;;;;;5053298;28;20294;-82
2022/04/16 05:21:20;;;;;;;9.13;6.13;;;5.40;99.90;;;;;;5042474;28;20206;-82
2022/04/16 05:23:46;;;;;;;8.80;6.27;;;5.40;99.90;;;;;;5041834;28;20174;-82
2022/04/16 05:26:12;;;;;;;8.53;5.97;;;5.50;99.90;;;;;;5040245;28;20189;-81
2022/04/16 05:28:39;;;;;;;8.17;6.13;;;5.60;99.90;;;;;;5042247;28;20175;-82
2022/04/16 05:31:05;;;;;;;13.10;7.63;;;5.70;99.90;;;;;;5040559;28;20226;-81
2022/04/16 05:36:16;;;;;;;8.53;6.90;;;5.80;99.90;;;;;;5041460;28;20250;-81
2022/04/16 05:38:42;;;;;;;8.47;6.17;;;5.70;99.90;;;;;;5042257;28;20241;-82
2022/04/16 05:41:08;;;;;;;7.80;6.23;;;5.80;99.90;;;;;;5041798;28;20214;-81
2022/04/16 05:43:34;;;;;;;9.30;6.60;;;5.80;99.90;;;;;;5040026;28;20182;-81
2022/04/16 05:45:59;;;;;;;8.63;6.90;;;5.80;99.90;;;;;;5040111;28;20648;-80
2022/04/16 05:48:25;;;;;;;9.10;6.20;;;5.80;99.90;;;;;;5041080;28;20183;-81
2022/04/16 05:50:51;;;;;;;8.83;6.40;;;5.80;99.90;;;;;;5040727;28;20283;-81
2022/04/16 05:53:18;;;;;;;8.77;6.77;;;6.00;99.90;;;;;;5041424;28;20745;-81
2022/04/16 05:55:48;;;;;;;9.13;6.30;;;6.10;99.90;;;;;;5040359;28;20186;-81
2022/04/16 05:58:15;;;;;;;9.50;7.10;;;6.20;99.90;;;;;;5041324;28;20785;-81
2022/04/16 06:00:41;;;;;;;9.30;6.50;;;6.30;99.90;;;;;;5040474;28;20198;-81
2022/04/16 06:03:07;;;;;;;7.80;6.13;;;6.30;99.90;;;;;;5041926;28;20175;-81
2022/04/16 06:05:33;;;;;;;8.40;6.37;;;6.40;99.90;;;;;;5040727;28;20266;-81
2022/04/16 06:07:59;;;;;;;11.47;6.90;;;6.30;99.90;;;;;;5040204;28;20195;-81
2022/04/16 06:10:25;;;;;;;7.30;6.10;;;6.40;99.90;;;;;;5040474;28;20259;-81
2022/04/16 06:12:51;;;;;;;7.80;6.07;;;6.50;99.90;;;;;;5040636;28;20256;-81
2022/04/16 06:15:16;;;;;;;8.03;5.73;;;6.60;99.90;;;;;;5041605;28;20178;-81
2022/04/16 06:17:42;;;;;;;8.30;5.90;;;6.70;99.90;;;;;;5044470;28;20198;-81
2022/04/16 06:20:08;;;;;;;7.30;5.37;;;6.70;99.90;;;;;;5046825;28;20229;-81
2022/04/16 06:22:35;;;;;;;6.80;5.43;;;6.70;99.90;;;;;;5046644;28;20188;-82
2022/04/16 06:25:01;;;;;;;6.70;5.60;;;6.80;99.90;;;;;;5047693;28;20177;-81
2022/04/16 06:27:26;;;;;;;7.73;5.93;;;6.90;99.90;;;;;;5047618;28;20179;-81
2022/04/16 06:29:52;;;;;;;7.97;5.40;;;6.90;99.90;;;;;;5044384;28;20204;-81
2022/04/16 06:32:18;;;;;;;8.77;6.27;;;6.90;99.90;;;;;;5046883;28;20198;-81
2022/04/16 06:34:44;;;;;;;8.23;6.37;;;6.90;99.90;;;;;;5043399;28;20179;-81
2022/04/16 06:37:09;;;;;;;7.40;6.23;;;6.80;99.90;;;;;;5042979;28;20192;-82
2022/04/16 06:39:35;;;;;;;9.50;6.23;;;6.90;99.90;;;;;;5043602;28;20207;-81
2022/04/16 06:42:01;;;;;;;11.20;6.53;;;7.10;99.90;;;;;;5041486;28;20204;-82
2022/04/16 06:44:27;;;;;;;7.63;6.23;;;7.20;99.90;;;;;;5042430;28;20168;-82
2022/04/16 06:46:54;;;;;;;7.43;5.87;;;7.30;99.90;;;;;;5042709;28;20167;-81
2022/04/16 06:49:22;;;;;;;6.23;5.33;;;7.30;99.90;;;;;;5043036;28;20182;-82
2022/04/16 06:51:48;;;;;;;7.27;6.07;;;7.40;99.90;;;;;;5042439;28;20191;-81
2022/04/16 06:54:14;;;;;;;7.67;5.93;;;;;;;;;;5040568;28;20190;-81
2022/04/16 06:56:40;;;;;;;6.00;5.23;;;7.50;99.90;;;;;;5041895;28;20190;-82
2022/04/16 06:59:05;;;;;;;6.60;5.60;;;7.60;99.90;;;;;;5041619;28;20208;-81
2022/04/16 07:01:31;;;;;;;7.10;5.73;;;7.70;99.90;;;;;;5042094;28;20192;-82
2022/04/16 07:03:57;;;;;;;6.77;5.57;;;7.80;99.90;;;;;;5040984;28;20542;-80
2022/04/16 07:06:22;;;;;;;8.37;5.53;;;7.80;99.90;;;;;;5043765;28;20185;-82
2022/04/16 07:08:48;;;;;;;6.87;5.90;;;7.90;99.90;;;;;;5041342;28;20193;-82
2022/04/16 07:11:13;;;;;;;7.40;6.10;;;7.90;99.90;;;;;;5047518;28;20192;-82
2022/04/16 07:13:39;;;;;;;7.07;5.77;;;7.90;99.90;;;;;;5059839;28;20208;-81
2022/04/16 07:16:05;;;;;;;9.70;5.93;;;8.00;99.90;;;;;;5058532;28;20213;-82
2022/04/16 07:18:30;;;;;;;6.50;5.57;;;8.00;99.90;;;;;;5052280;28;20373;-81
2022/04/16 07:20:56;;;;;;;7.50;5.93;;;8.00;99.90;;;;;;5043079;28;20531;-81
2022/04/16 07:23:22;;;;;;;7.33;6.07;;;7.80;99.90;;;;;;5038216;28;20661;-81
2022/04/16 07:25:47;;;;;;;6.97;5.30;;;7.70;99.90;;;;;;5039189;28;20266;-82
2022/04/16 07:28:21;;;;;;;7.57;5.67;;;7.70;99.90;;;;;;5040946;28;20263;-82
2022/04/16 07:30:50;;;;;;;8.63;5.73;;;7.70;99.90;;;;;;5041574;28;20198;-82
2022/04/16 07:33:17;;;;;;;8.90;5.40;;;7.70;99.90;;;;;;5040217;28;20198;-81
2022/04/16 07:35:43;;;;;;;7.47;5.37;;;7.70;99.90;;;;;;5039914;28;20183;-81
2022/04/16 07:38:08;;;;;;;6.90;5.53;;;7.80;99.90;;;;;;5040321;28;20215;-82
2022/04/16 07:40:34;;;;;;;7.37;5.70;;;7.90;99.90;;;;;;5040033;28;20198;-81
2022/04/16 07:43:03;;;;;;;6.73;5.30;;;7.90;99.90;;;;;;5041599;28;20166;-82
2022/04/16 07:45:29;;;;;;;5.87;5.07;;;8.00;99.90;;;;;;5041103;28;20200;-81
2022/04/16 07:47:55;;;;;;;8.53;5.83;;;8.10;99.90;;;;;;5040089;28;20180;-82
2022/04/16 07:50:21;;;;;;;8.03;5.70;;;8.10;99.90;;;;;;5041445;28;20705;-82
2022/04/16 07:52:47;;;;;;;6.53;5.40;;;8.20;99.90;;;;;;5041058;28;20170;-82
2022/04/16 07:55:16;;;;;;;5.23;4.67;;;8.20;99.90;;;;;;5040839;28;20179;-82
2022/04/16 07:57:42;;;;;;;6.60;5.20;;;8.20;99.90;;;;;;5041369;28;20188;-81
2022/04/16 08:00:10;;;;;;;7.53;5.03;;;8.40;99.90;;;;;;5040530;28;20676;-81
2022/04/16 08:02:35;;;;;;;6.00;4.80;;;8.60;99.90;;;;;;5043006;28;20178;-82
2022/04/16 08:05:01;;;;;;;5.53;4.77;;;8.60;99.90;;;;;;5040744;28;20204;-83
2022/04/16 08:07:27;;;;;;;7.33;4.80;;;8.70;99.90;;;;;;5040758;28;20647;-82
2022/04/16 08:09:53;;;;;;;5.47;4.60;;;8.80;99.90;;;;;;5040488;28;20653;-82
2022/04/16 08:12:18;;;;;;;7.03;5.00;;;8.90;99.90;;;;;;5039229;28;20181;-82
2022/04/16 08:14:44;;;;;;;6.47;5.10;;;9.00;99.90;;;;;;5041426;28;20213;-83
2022/04/16 08:17:10;;;;;;;6.47;5.20;;;9.10;99.90;;;;;;5042232;28;20177;-83
2022/04/16 08:19:36;;;;;;;4.90;4.40;;;9.30;99.90;;;;;;5040348;28;20200;-82
2022/04/16 08:22:07;;;;;;;6.07;4.80;;;9.30;99.90;;;;;;5040358;28;20286;-82
2022/04/16 08:24:41;;;;;;;5.87;5.00;;;9.30;99.90;;;;;;5040474;28;20182;-82
2022/04/16 08:27:07;;;;;;;5.90;4.53;;;9.30;99.90;;;;;;5042778;28;20170;-83
2022/04/16 08:29:33;;;;;;;4.63;4.03;;;9.40;99.90;;;;;;5041277;28;20192;-83
2022/04/16 08:31:59;;;;;;;5.63;4.67;;;9.30;99.90;;;;;;5041661;28;20226;-82
2022/04/16 08:34:24;;;;;;;141.50;14.23;;;9.20;99.90;;;;;;5042225;28;20647;-83
2022/04/16 08:36:50;;;;;;;32.77;6.77;;;9.30;99.90;;;;;;5041837;28;20567;-82
2022/04/16 08:39:15;;;;;;;6.30;4.50;;;9.40;99.90;;;;;;5040487;28;20565;-83
2022/04/16 08:41:41;;;;;;;4.17;3.77;;;9.40;99.90;;;;;;5040053;28;20684;-83
2022/04/16 08:44:09;;;;;;;5.80;4.30;;;9.20;99.90;;;;;;5041402;28;20534;-84
2022/04/16 08:46:35;;;;;;;4.93;3.93;;;9.20;99.90;;;;;;5039921;28;20180;-84
2022/04/16 08:49:01;;;;;;;4.43;4.00;;;9.10;99.90;;;;;;5039161;28;20628;-84
2022/04/16 08:51:28;;;;;;;5.10;4.30;;;9.00;99.90;;;;;;5039515;28;20201;-83
2022/04/16 08:53:54;;;;;;;4.87;4.33;;;8.90;99.90;;;;;;5040134;28;20182;-83
2022/04/16 08:56:19;;;;;;;5.97;4.33;;;8.90;99.90;;;;;;5040745;28;20184;-82
2022/04/16 08:58:45;;;;;;;5.10;4.30;;;8.70;99.90;;;;;;5040798;28;20206;-83
2022/04/16 09:01:11;;;;;;;3.90;3.47;;;8.80;99.90;;;;;;5041075;28;20199;-83
2022/04/16 09:03:39;;;;;;;4.43;3.70;;;8.70;99.90;;;;;;5042139;28;20176;-83
2022/04/16 09:06:06;;;;;;;5.70;4.20;;;8.60;99.90;;;;;;5042271;28;20199;-83
2022/04/16 09:08:33;;;;;;;4.27;3.50;;;8.80;99.90;;;;;;5041069;28;20214;-83
2022/04/16 09:11:12;;;;;;;4.17;3.23;;;8.90;99.90;;;;;;5054512;28;20197;-83
2022/04/16 09:13:54;;;;;;;4.60;3.70;;;9.10;99.90;;;;;;5055772;28;20191;-83
2022/04/16 09:16:21;;;;;;;4.17;3.53;;;9.20;99.90;;;;;;5041223;28;20185;-82
2022/04/16 09:18:50;;;;;;;4.73;3.33;;;9.30;99.90;;;;;;5040987;28;20190;-82
2022/04/16 09:21:16;;;;;;;4.17;3.77;;;9.60;99.90;;;;;;5040640;28;20560;-82
2022/04/16 09:23:51;;;;;;;5.87;4.07;;;9.70;99.90;;;;;;5042052;28;20763;-82
2022/04/16 09:26:36;;;;;;;4.10;3.63;;;9.70;99.90;;;;;;5041826;28;20197;-82
2022/04/16 09:29:10;;;;;;;4.67;3.67;;;9.90;99.90;;;;;;5039637;28;20181;-82
2022/04/16 09:31:40;;;;;;;5.07;3.40;;;10.10;99.90;;;;;;5035813;28;20198;-81
2022/04/16 09:34:07;;;;;;;4.47;3.77;;;10.30;99.90;;;;;;5035975;28;20236;-81
2022/04/16 09:36:39;;;;;;;4.97;3.90;;;10.70;99.90;;;;;;5041146;28;20261;-81
2022/04/16 09:39:06;;;;;;;4.60;3.90;;;10.50;99.90;;;;;;5038779;28;20210;-81
2022/04/16 09:41:34;;;;;;;3.23;2.93;;;10.50;99.90;;;;;;5039826;28;20252;-82
2022/04/16 09:44:01;;;;;;;4.97;3.83;;;10.50;99.90;;;;;;5039608;28;20627;-82
2022/04/16 09:46:28;;;;;;;3.63;3.20;;;10.30;99.90;;;;;;5041812;28;20628;-83
2022/04/16 09:48:58;;;;;;;4.13;3.50;;;10.00;99.90;;;;;;5040346;28;20174;-82
2022/04/16 09:51:24;;;;;;;4.17;3.70;;;9.80;99.90;;;;;;5042716;28;20198;-81
2022/04/16 09:53:52;;;;;;;3.23;2.93;;;9.50;99.90;;;;;;5040538;28;20209;-82
2022/04/16 09:56:20;;;;;;;4.07;3.43;;;9.40;99.90;;;;;;5040934;28;20179;-82
2022/04/16 09:58:52;;;;;;;4.17;3.60;;;9.20;99.90;;;;;;5041924;28;20224;-82
2022/04/16 10:01:21;;;;;;;5.77;4.03;;;9.00;99.90;;;;;;5041933;28;20198;-82
2022/04/16 10:03:47;;;;;;;3.90;3.50;;;9.00;99.90;;;;;;5042719;28;20180;-82
2022/04/16 10:06:15;;;;;;;4.00;3.50;;;8.90;99.90;;;;;;5042951;28;20181;-82
2022/04/16 10:08:41;;;;;;;4.80;3.43;;;8.80;99.90;;;;;;5042046;28;20245;-82
2022/04/16 10:11:08;;;;;;;4.67;3.47;;;8.70;99.90;;;;;;5041906;28;20296;-82
2022/04/16 10:13:39;;;;;;;3.60;2.90;;;8.70;99.90;;;;;;5041397;28;20241;-82
2022/04/16 10:16:12;;;;;;;6.47;3.47;;;8.70;99.90;;;;;;5041728;28;20174;-82
2022/04/16 10:18:38;;;;;;;3.83;3.43;;;8.70;99.90;;;;;;5041744;28;20694;-82
2022/04/16 10:21:04;;;;;;;3.97;3.40;;;8.80;99.90;;;;;;5041490;28;20198;-82
2022/04/16 10:23:36;;;;;;;3.53;3.20;;;8.90;99.90;;;;;;5041268;28;20174;-82
2022/04/16 10:26:06;;;;;;;6.27;3.37;;;9.00;99.90;;;;;;5039973;28;20187;-83
2022/04/16 10:28:40;;;;;;;3.50;3.20;;;9.10;99.90;;;;;;5041798;28;20635;-83
2022/04/16 10:31:28;;;;;;;4.43;3.47;;;9.20;99.90;;;;;;5042188;28;20210;-82
2022/04/16 10:34:11;;;;;;;4.27;3.47;;;9.50;99.90;;;;;;5043117;28;20181;-83
2022/04/16 10:36:41;;;;;;;4.70;3.53;;;9.70;99.90;;;;;;5041863;28;20182;-83
2022/04/16 10:39:14;;;;;;;3.33;3.00;;;9.80;99.90;;;;;;5041331;28;20244;-82
2022/04/16 10:41:39;;;;;;;3.40;3.10;;;9.80;99.90;;;;;;5039696;28;20194;-82
2022/04/16 10:44:09;;;;;;;5.13;2.93;;;10.00;99.90;;;;;;5039872;28;20201;-82
2022/04/16 10:46:46;;;;;;;3.83;3.10;;;10.20;99.90;;;;;;5041236;28;20178;-82
2022/04/16 10:49:13;;;;;;;2.70;2.40;;;10.20;99.90;;;;;;5043098;28;20177;-82
2022/04/16 10:51:39;;;;;;;3.30;2.63;;;10.20;99.90;;;;;;5041650;28;20288;-82
2022/04/16 10:54:14;;;;;;;3.43;3.10;;;10.00;99.90;;;;;;5039739;28;20178;-82
2022/04/16 10:56:44;;;;;;;3.70;3.00;;;9.70;99.90;;;;;;5041171;28;20179;-83
2022/04/16 10:59:11;;;;;;;4.10;3.70;;;9.50;99.90;;;;;;5041861;28;20186;-82
2022/04/16 11:01:37;;;;;;;4.93;3.50;;;9.20;99.90;;;;;;5040495;28;20201;-82
2022/04/16 11:04:14;;;;;;;3.60;3.00;;;9.10;99.90;;;;;;5042787;28;20174;-82
2022/04/16 11:06:48;;;;;;;4.23;3.80;;;9.00;99.90;;;;;;5040540;28;20173;-83
2022/04/16 11:09:16;;;;;;;5.10;4.07;;;8.90;99.90;;;;;;5040822;28;20205;-82
2022/04/16 11:11:43;;;;;;;5.63;3.50;;;8.80;99.90;;;;;;5040972;28;20398;-82
2022/04/16 11:14:10;;;;;;;4.20;3.50;;;8.80;99.90;;;;;;5041700;28;20182;-82
2022/04/16 11:16:53;;;;;;;4.37;3.70;;;8.80;99.90;;;;;;5041582;28;20186;-82
2022/04/16 11:19:19;;;;;;;9.80;3.57;;;8.90;99.90;;;;;;5056481;28;20201;-82
2022/04/16 11:21:45;;;;;;;3.77;3.40;;;8.80;99.90;;;;;;5059632;28;20199;-82
2022/04/16 11:24:11;;;;;;;4.20;3.33;;;8.70;99.90;;;;;;5060315;28;20181;-82
2022/04/16 11:34:53;;;;;;;4.20;3.57;;;8.60;99.90;;;;;;5042706;28;20203;-82
2022/04/16 11:37:20;;;;;;;4.00;3.60;;;8.70;99.90;;;;;;5040947;28;20200;-82
2022/04/16 11:39:46;;;;;;;3.97;3.57;;;8.90;99.90;;;;;;5041117;28;20241;-82
2022/04/16 11:42:12;;;;;;;4.47;3.13;;;9.00;99.90;;;;;;5041082;28;20178;-82
2022/04/16 11:44:50;;;;;;;4.27;3.27;;;9.00;99.90;;;;;;5040711;28;20185;-82
2022/04/16 11:47:20;;;;;;;6.33;3.63;;;9.10;99.90;;;;;;5040595;28;20184;-82
2022/04/16 11:49:51;;;;;;;3.73;3.30;;;9.10;99.90;;;;;;5040307;28;20181;-82
2022/04/16 11:52:23;;;;;;;4.60;3.33;;;9.20;99.90;;;;;;5039760;28;20178;-82
2022/04/16 11:55:14;;;;;;;3.90;3.50;;;9.20;99.90;;;;;;5041061;28;20176;-82
2022/04/16 11:57:54;;;;;;;3.70;3.40;;;9.40;99.90;;;;;;5040273;28;20565;-82
2022/04/16 12:00:21;;;;;;;4.93;3.90;;;9.50;99.90;;;;;;5039890;28;20197;-82
2022/04/16 12:02:47;;;;;;;6.53;4.23;;;9.50;99.90;;;;;;5040359;28;20178;-83
2022/04/16 12:05:17;;;;;;;4.83;4.27;;;9.80;99.90;;;;;;5040711;28;20171;-82
2022/04/16 12:07:45;;;;;;;4.03;3.63;;;9.90;99.90;;;;;;5042416;28;20165;-82
2022/04/16 12:10:13;;;;;;;9.33;4.03;;;10.00;99.90;;;;;;5043186;28;20193;-82
2022/04/16 12:12:53;;;;;;;3.97;3.57;;;10.10;99.90;;;;;;5041964;28;20523;-83
2022/04/16 12:15:26;;;;;;;5.70;3.80;;;10.10;99.90;;;;;;5040900;28;20180;-82
2022/04/16 12:17:53;;;;;;;4.00;3.60;;;9.90;99.90;;;;;;5040681;28;20207;-82
2022/04/16 12:20:22;;;;;;;3.70;3.40;;;9.90;99.90;;;;;;5042189;28;20214;-82
2022/04/16 12:23:02;;;;;;;5.30;3.20;;;9.90;99.90;;;;;;5041745;28;20177;-82
2022/04/16 12:25:29;;;;;;;3.80;3.40;;;9.90;99.90;;;;;;5042830;28;20189;-82
2022/04/16 12:27:59;;;;;;;4.80;3.83;;;9.90;99.90;;;;;;5043160;28;20174;-82
2022/04/16 12:30:33;;;;;;;4.23;3.83;;;9.70;99.90;;;;;;5041896;28;20223;-81
2022/04/16 12:33:03;;;;;;;4.10;3.63;;;9.50;99.90;;;;;;5038386;28;20170;-81
2022/04/16 12:35:31;;;;;;;4.37;3.90;;;9.40;99.90;;;;;;5041279;28;20694;-81
2022/04/16 12:37:58;;;;;;;4.87;3.87;;;9.30;99.90;;;;;;5035926;28;20648;-81
2022/04/16 12:40:25;;;;;;;4.03;3.40;;;9.30;99.90;;;;;;5037854;28;20247;-82
2022/04/16 12:42:53;;;;;;;5.10;4.00;;;9.20;99.90;;;;;;5035426;28;20538;-81
2022/04/16 12:45:20;;;;;;;3.80;3.30;;;9.30;99.90;;;;;;5035909;28;20185;-81
2022/04/16 12:47:46;;;;;;;3.43;3.13;;;9.50;99.90;;;;;;5037953;28;20181;-81
2022/04/16 12:50:13;;;;;;;4.50;3.47;;;9.50;99.90;;;;;;5037151;28;20201;-80
2022/04/16 12:52:40;;;;;;;4.47;3.43;;;9.50;99.90;;;;;;5041377;28;20177;-80
2022/04/16 12:55:07;;;;;;;4.40;3.43;;;9.30;99.90;;;;;;5039923;28;20252;-81
2022/04/16 12:57:33;;;;;;;4.67;3.87;;;9.20;99.90;;;;;;5037924;28;20656;-82
2022/04/16 12:59:59;;;;;;;5.67;3.30;;;9.40;99.90;;;;;;5038378;28;20686;-82
2022/04/16 13:02:25;;;;;;;4.17;3.40;;;9.40;99.90;;;;;;5038612;28;20182;-83
2022/04/16 13:04:51;;;;;;;5.93;3.43;;;9.60;99.90;;;;;;5040569;28;20198;-82
2022/04/16 13:07:17;;;;;;;4.40;3.40;;;9.80;99.90;;;;;;5038808;28;20706;-82
2022/04/16 13:09:43;;;;;;;3.90;3.50;;;;;;;;;;5040468;28;20182;-82
2022/04/16 13:12:09;;;;;;;3.47;3.00;;;9.90;99.90;;;;;;5042685;28;20662;-82
2022/04/16 13:14:34;;;;;;;3.43;3.13;;;10.00;99.90;;;;;;5045660;28;20184;-81
2022/04/16 13:17:02;;;;;;;3.50;2.87;;;10.00;99.90;;;;;;5044857;28;20189;-81
2022/04/16 13:19:28;;;;;;;3.63;3.13;;;10.00;99.90;;;;;;5046703;28;20220;-81
2022/04/16 13:21:55;;;;;;;4.37;2.97;;;9.90;99.90;;;;;;5046665;28;20193;-82
2022/04/16 13:24:21;;;;;;;3.73;3.33;;;9.90;99.90;;;;;;5049950;28;20174;-81